Time;durP1;ratioP1;P1;durP2;ratioP2;P2;SDS_P1;SDS_P2;PMS_P1;PMS_P2;Temp;Humidity;BMP_temperature;BMP_pressure;BME280_temperature;BME280_humidity;BME280_pressure;Samples;Min_cycle;Max_cycle;Signal;HPM_P1;HPM_P2
2022/04/03 00:00:40;;;;;;;2.00;1.90;;;;;;;;;;5013967;28;20290;-86
2022/04/03 00:03:08;;;;;;;1.73;1.63;;;;;;;;;;5014022;28;20199;-87
2022/04/03 00:05:38;;;;;;;2.10;1.93;;;;;;;;;;5013826;28;20204;-87
2022/04/03 00:08:08;;;;;;;2.10;2.00;;;;;;;;;;5013661;28;20196;-86
2022/04/03 00:10:36;;;;;;;2.23;2.03;;;;;;;;;;5014154;28;20545;-87
2022/04/03 00:13:03;;;;;;;1.83;1.73;;;;;;;;;;5013606;28;20195;-86
2022/04/03 00:15:30;;;;;;;2.30;2.10;;;;;;;;;;5013589;28;20199;-86
2022/04/03 00:17:58;;;;;;;1.77;1.60;;;;;;;;;;5013530;28;20313;-86
2022/04/03 00:20:25;;;;;;;2.10;1.73;;;;;;;;;;5013471;28;20262;-87
2022/04/03 00:22:52;;;;;;;1.20;1.10;;;;;;;;;;5012863;28;20243;-86
2022/04/03 00:25:21;;;;;;;1.50;1.40;;;;;;;;;;5012914;28;20200;-86
2022/04/03 00:27:48;;;;;;;3.07;1.60;;;;;;;;;;5013411;28;20242;-87
2022/04/03 00:30:16;;;;;;;1.20;1.10;;;;;;;;;;5013403;28;20199;-87
2022/04/03 00:32:43;;;;;;;2.10;1.20;;;;;;;;;;5013135;28;20199;-87
2022/04/03 00:35:10;;;;;;;1.40;1.30;;;;;;;;;;5013305;28;20259;-87
2022/04/03 00:37:38;;;;;;;1.30;1.20;;;;;;;;;;5013025;28;20270;-87
2022/04/03 00:40:06;;;;;;;1.37;1.00;;;;;;;;;;5013291;28;20226;-86
2022/04/03 00:42:36;;;;;;;1.53;1.43;;;;;;;;;;5013082;28;20294;-87
2022/04/03 00:45:04;;;;;;;1.10;1.10;;;;;;;;;;5012820;28;20238;-86
2022/04/03 00:47:32;;;;;;;1.20;1.20;;;;;;;;;;5013162;28;20283;-86
2022/04/03 00:49:59;;;;;;;2.30;2.10;;;;;;;;;;5013063;28;20199;-86
2022/04/03 00:52:26;;;;;;;2.37;2.10;;;;;;;;;;5013294;28;20231;-87
2022/04/03 00:54:54;;;;;;;2.00;1.77;;;;;;;;;;5013256;28;20287;-87
2022/04/03 00:57:23;;;;;;;2.53;1.63;;;;;;;;;;5012878;28;20319;-86
2022/04/03 00:59:52;;;;;;;1.43;1.33;;;;;;;;;;5012861;28;20245;-86
2022/04/03 01:02:19;;;;;;;2.73;1.90;;;;;;;;;;5012476;28;20230;-86
2022/04/03 01:04:46;;;;;;;2.30;1.30;;;;;;;;;;5013114;28;20288;-86
2022/04/03 01:07:14;;;;;;;1.70;1.60;;;;;;;;;;5012630;28;20286;-87
2022/04/03 01:09:42;;;;;;;2.00;1.10;;;;;;;;;;5012880;28;20290;-87
2022/04/03 01:12:10;;;;;;;1.40;1.30;;;;;;;;;;5012645;28;20203;-87
2022/04/03 01:14:39;;;;;;;1.63;1.53;;;;;;;;;;5013042;28;20299;-87
2022/04/03 01:17:10;;;;;;;1.00;1.00;;;;;;;;;;5012838;28;20314;-86
2022/04/03 01:19:38;;;;;;;1.10;1.10;;;;;;;;;;5012730;28;20219;-86
2022/04/03 01:22:05;;;;;;;1.30;1.20;;;;;;;;;;5012642;28;20635;-86
2022/04/03 01:24:33;;;;;;;1.43;1.30;;;;;;;;;;5012711;28;20199;-87
2022/04/03 01:27:02;;;;;;;2.77;1.27;;;;;;;;;;5012486;28;20231;-86
2022/04/03 01:29:29;;;;;;;1.37;1.27;;;;;;;;;;5012853;28;20203;-86
2022/04/03 01:31:56;;;;;;;1.17;1.17;;;;;;;;;;5012702;28;20593;-87
2022/04/03 01:34:24;;;;;;;1.27;1.07;;;;;;;;;;5012382;28;20278;-87
2022/04/03 01:36:51;;;;;;;1.30;1.23;;;;;;;;;;5012294;28;20302;-86
2022/04/03 01:39:18;;;;;;;1.90;1.30;;;;;;;;;;5012343;28;20687;-87
2022/04/03 01:41:47;;;;;;;1.20;1.10;;;;;;;;;;5012739;28;20200;-87
2022/04/03 01:44:16;;;;;;;1.30;1.20;;;;;;;;;;5012396;28;20278;-86
2022/04/03 01:46:43;;;;;;;1.73;1.40;;;;;;;;;;5012175;28;20198;-87
2022/04/03 01:49:11;;;;;;;1.50;1.40;;;;;;;;;;5012448;28;20206;-87
2022/04/03 01:51:38;;;;;;;2.07;1.20;;;;;;;;;;5012629;28;20660;-87
2022/04/03 01:54:05;;;;;;;1.73;1.20;;;;;;;;;;5012341;28;20703;-87
2022/04/03 01:56:34;;;;;;;1.97;1.57;;;;;;;;;;5012116;28;20227;-87
2022/04/03 01:59:02;;;;;;;1.60;1.50;;;;;;;;;;5012269;28;20203;-86
2022/04/03 02:01:31;;;;;;;2.37;1.13;;;;;;;;;;5012536;28;20222;-87
2022/04/03 02:04:00;;;;;;;1.80;1.50;;;;;;;;;;5012182;28;20286;-86
2022/04/03 02:06:27;;;;;;;1.30;1.20;;;;;;;;;;5012519;28;20639;-87
2022/04/03 02:08:54;;;;;;;1.00;1.00;;;;;;;;;;5012068;28;20203;-86
2022/04/03 02:11:22;;;;;;;2.40;1.30;;;;;;;;;;5012195;28;20238;-86
2022/04/03 02:13:50;;;;;;;1.37;1.27;;;;;;;;;;5012966;28;20286;-86
2022/04/03 02:16:18;;;;;;;1.50;1.40;;;;;;;;;;5015848;28;20206;-87
2022/04/03 02:18:46;;;;;;;1.37;1.30;;;;;;;;;;5015922;28;20254;-87
2022/04/03 02:21:14;;;;;;;1.17;1.17;;;;;;;;;;5015979;28;20211;-87
2022/04/03 02:23:41;;;;;;;1.60;1.50;;;;;;;;;;5015690;28;20195;-87
2022/04/03 02:26:09;;;;;;;3.90;1.83;;;;;;;;;;5015656;28;20195;-87
2022/04/03 02:28:36;;;;;;;2.60;2.40;;;;;;;;;;5015954;28;20579;-87
2022/04/03 02:31:03;;;;;;;2.17;1.97;;;;;;;;;;5015482;28;20191;-86
2022/04/03 02:33:31;;;;;;;3.40;2.77;;;;;;;;;;5015550;28;20254;-86
2022/04/03 02:35:59;;;;;;;2.70;2.50;;;;;;;;;;5015291;28;20239;-86
2022/04/03 02:38:27;;;;;;;3.13;2.77;;;;;;;;;;5015413;28;20223;-86
2022/04/03 02:40:54;;;;;;;3.10;2.57;;;;;;;;;;5015795;28;20273;-86
2022/04/03 02:43:21;;;;;;;3.13;2.23;;;;;;;;;;5015275;28;20278;-87
2022/04/03 02:45:49;;;;;;;2.50;2.30;;;;;;;;;;5015312;28;20758;-86
2022/04/03 02:48:16;;;;;;;1.33;1.33;;;;;;;;;;5015103;28;20204;-85
2022/04/03 02:50:44;;;;;;;1.93;1.77;;;;;;;;;;5014855;28;20237;-86
2022/04/03 02:53:12;;;;;;;1.60;1.50;;;;;;;;;;5015138;28;20294;-86
2022/04/03 02:55:40;;;;;;;2.27;1.83;;;;;;;;;;5015134;28;20295;-86
2022/04/03 02:58:07;;;;;;;3.07;2.10;;;;;;;;;;5014903;28;20265;-86
2022/04/03 03:00:35;;;;;;;2.27;2.17;;;;;;;;;;5014812;28;20285;-86
2022/04/03 03:03:05;;;;;;;2.30;1.57;;;;;;;;;;5015010;28;20204;-86
2022/04/03 03:05:32;;;;;;;1.50;1.40;;;;;;;;;;5014823;28;20199;-85
2022/04/03 03:07:59;;;;;;;4.50;1.57;;;;;;;;;;5015049;28;20553;-85
2022/04/03 03:10:28;;;;;;;1.63;1.53;;;;;;;;;;5014657;28;20232;-85
2022/04/03 03:12:55;;;;;;;1.20;1.17;;;;;;;;;;5014810;28;20290;-86
2022/04/03 03:15:23;;;;;;;1.20;1.20;;;;;;;;;;5014914;28;20286;-85
2022/04/03 03:17:50;;;;;;;1.60;1.50;;;;;;;;;;5014587;28;20763;-86
2022/04/03 03:20:17;;;;;;;4.23;1.90;;;;;;;;;;5014420;28;20364;-86
2022/04/03 03:22:45;;;;;;;7.83;7.13;;;;;;;;;;5014545;28;20294;-86
2022/04/03 03:25:12;;;;;;;12.00;10.70;;;;;;;;;;5014156;28;20290;-86
2022/04/03 03:27:41;;;;;;;4.03;3.67;;;;;;;;;;5014373;28;20214;-85
2022/04/03 03:30:11;;;;;;;4.33;3.00;;;;;;;;;;5011861;28;20208;-84
2022/04/03 03:32:38;;;;;;;2.80;2.30;;;;;;;;;;5014062;28;20199;-86
2022/04/03 03:35:06;;;;;;;2.30;2.10;;;;;;;;;;5013982;28;20231;-87
2022/04/03 03:37:34;;;;;;;5.70;3.63;;;;;;;;;;5013938;28;20314;-86
2022/04/03 03:40:01;;;;;;;2.33;2.03;;;;;;;;;;5014271;28;20226;-86
2022/04/03 03:42:30;;;;;;;2.03;1.93;;;;;;;;;;5014071;28;20203;-86
2022/04/03 03:44:59;;;;;;;1.67;1.57;;;;;;;;;;5013954;28;20199;-86
2022/04/03 03:47:27;;;;;;;3.27;2.27;;;;;;;;;;5014038;28;20206;-86
2022/04/03 03:49:54;;;;;;;2.50;2.03;;;;;;;;;;5013895;28;20262;-87
2022/04/03 03:52:22;;;;;;;7.73;4.13;;;;;;;;;;5013867;28;20242;-85
2022/04/03 03:54:49;;;;;;;5.17;3.93;;;;;;;;;;5013830;28;20286;-85
2022/04/03 03:57:16;;;;;;;5.37;4.87;;;;;;;;;;5013443;28;20233;-85
2022/04/03 03:59:44;;;;;;;3.10;2.80;;;;;;;;;;5013647;28;20196;-86
2022/04/03 04:02:13;;;;;;;2.00;1.70;;;;;;;;;;5013923;28;20200;-85
2022/04/03 04:04:40;;;;;;;8.33;2.27;;;;;;;;;;5013577;28;20278;-86
2022/04/03 04:07:08;;;;;;;3.03;1.70;;;;;;;;;;5013568;28;20199;-85
2022/04/03 04:09:35;;;;;;;1.90;1.70;;;;;;;;;;5013688;28;20203;-85
2022/04/03 04:12:03;;;;;;;1.73;1.63;;;;;;;;;;5013410;28;20199;-85
2022/04/03 04:14:31;;;;;;;1.63;1.50;;;;;;;;;;5013236;28;20230;-85
2022/04/03 04:16:58;;;;;;;3.10;2.70;;;;;;;;;;5013127;28;20740;-86
2022/04/03 04:19:27;;;;;;;3.27;1.70;;;;;;;;;;5013508;28;20672;-86
2022/04/03 04:21:54;;;;;;;2.60;1.60;;;;;;;;;;5013439;28;20196;-85
2022/04/03 04:24:25;;;;;;;2.00;1.80;;;;;;;;;;5014647;28;20203;-85
2022/04/03 04:26:52;;;;;;;3.10;2.60;;;;;;;;;;5013257;28;20216;-86
2022/04/03 04:29:19;;;;;;;7.33;6.63;;;;;;;;;;5013414;28;20223;-85
2022/04/03 04:31:46;;;;;;;5.80;4.50;;;;;;;;;;5013250;28;20231;-86
2022/04/03 04:34:13;;;;;;;8.60;5.87;;;;;;;;;;5012789;28;20294;-86
2022/04/03 04:36:42;;;;;;;8.17;7.47;;;;;;;;;;5012356;28;20199;-86
2022/04/03 04:39:09;;;;;;;61.13;42.70;;;;;;;;;;5012862;28;20227;-85
2022/04/03 04:41:37;;;;;;;75.07;49.07;;;;;;;;;;5012935;28;20310;-86
2022/04/03 04:44:04;;;;;;;184.40;108.93;;;;;;;;;;5012932;28;20199;-86
2022/04/03 04:46:31;;;;;;;49.20;28.23;;;;;;;;;;5013045;28;20661;-86
2022/04/03 04:48:58;;;;;;;53.43;27.87;;;;;;;;;;5012933;28;20301;-86
2022/04/03 04:51:26;;;;;;;48.60;25.80;;;;;;;;;;5012919;28;20290;-86
2022/04/03 04:53:54;;;;;;;19.97;11.27;;;;;;;;;;5012711;28;20196;-86
2022/04/03 04:56:22;;;;;;;213.43;122.80;;;;;;;;;;5012867;28;20286;-86
2022/04/03 04:58:49;;;;;;;150.17;80.50;;;;;;;;;;5012616;28;20314;-86
2022/04/03 05:01:17;;;;;;;31.63;18.10;;;;;;;;;;5012551;28;20291;-86
2022/04/03 05:03:44;;;;;;;40.67;21.40;;;;;;;;;;5012618;28;20199;-86
2022/04/03 05:06:15;;;;;;;23.83;14.93;;;;;;;;;;5012654;28;20681;-86
2022/04/03 05:08:43;;;;;;;18.23;15.37;;;;;;;;;;5012966;28;20263;-86
2022/04/03 05:11:12;;;;;;;20.40;18.60;;;;;;;;;;5012642;28;20230;-86
2022/04/03 05:13:40;;;;;;;15.07;13.67;;;;;;;;;;5012561;28;20680;-86
2022/04/03 05:16:07;;;;;;;9.13;8.33;;;;;;;;;;5012574;28;20290;-86
2022/04/03 05:18:35;;;;;;;12.20;10.00;;;;;;;;;;5012461;28;20239;-86
2022/04/03 05:21:03;;;;;;;8.87;7.37;;;;;;;;;;5012223;28;20289;-86
2022/04/03 05:23:30;;;;;;;12.90;8.83;;;;;;;;;;5013005;28;20561;-86
2022/04/03 05:25:57;;;;;;;8.53;7.63;;;;;;;;;;5012688;28;20641;-86
2022/04/03 05:28:26;;;;;;;75.27;49.70;;;;;;;;;;5012453;28;20262;-86
2022/04/03 05:30:54;;;;;;;23.17;15.70;;;;;;;;;;5012140;28;20326;-86
2022/04/03 05:33:21;;;;;;;15.27;11.87;;;;;;;;;;5012434;28;20665;-86
2022/04/03 05:35:48;;;;;;;18.23;12.10;;;;;;;;;;5012136;28;20778;-86
2022/04/03 05:38:15;;;;;;;31.60;19.43;;;;;;;;;;5012255;28;20310;-86
2022/04/03 05:40:43;;;;;;;8.40;5.70;;;;;;;;;;5012305;28;20230;-86
2022/04/03 05:43:11;;;;;;;4.43;3.50;;;;;;;;;;5012581;28;20706;-87
2022/04/03 05:45:40;;;;;;;3.63;3.33;;;;;;;;;;5012432;28;20290;-87
2022/04/03 05:48:08;;;;;;;5.10;4.70;;;;;;;;;;5014014;28;20282;-87
2022/04/03 05:50:37;;;;;;;5.87;4.37;;;;;;;;;;5016703;28;20214;-87
2022/04/03 05:53:05;;;;;;;7.43;4.93;;;;;;;;;;5016315;28;20199;-87
2022/04/03 05:55:32;;;;;;;3.13;2.83;;;;;;;;;;5016236;28;20235;-87
2022/04/03 05:58:00;;;;;;;8.53;4.50;;;;;;;;;;5016317;28;20707;-86
2022/04/03 06:00:27;;;;;;;4.23;3.87;;;;;;;;;;5016177;28;20743;-87
2022/04/03 06:02:57;;;;;;;3.40;3.07;;;;;;;;;;5016332;28;20238;-87
2022/04/03 06:05:25;;;;;;;4.37;3.43;;;;;;;;;;5016032;28;20202;-87
2022/04/03 06:07:53;;;;;;;5.03;3.10;;;;;;;;;;5016139;28;20227;-87
2022/04/03 06:10:22;;;;;;;10.73;8.93;;;;;;;;;;5015942;28;20242;-87
2022/04/03 06:12:54;;;;;;;4.83;4.07;;;;;;;;;;5015962;28;20210;-87
2022/04/03 06:15:21;;;;;;;19.23;10.70;;;;;;;;;;5015922;28;20295;-86
2022/04/03 06:17:49;;;;;;;7.80;4.10;;;;;;;;;;5016171;28;20581;-86
2022/04/03 06:20:18;;;;;;;36.17;21.17;;;;;;;;;;5015995;28;20576;-87
2022/04/03 06:22:45;;;;;;;4.07;3.67;;;;;;;;;;5015898;28;20206;-87
2022/04/03 06:25:14;;;;;;;22.20;13.13;;;;;;;;;;5016007;28;20282;-88
2022/04/03 06:27:41;;;;;;;9.57;7.33;;;;;;;;;;5015953;28;20298;-88
2022/04/03 06:30:10;;;;;;;35.90;22.37;;;;;;;;;;5015816;28;20281;-88
2022/04/03 06:32:37;;;;;;;42.60;25.47;;;;;;;;;;5015975;28;20226;-88
2022/04/03 06:35:05;;;;;;;65.53;34.00;;;;;;;;;;5015873;28;20719;-88
2022/04/03 06:37:34;;;;;;;16.67;10.27;;;;;;;;;;5015722;28;20282;-87
2022/04/03 06:40:02;;;;;;;19.27;11.53;;;;;;;;;;5015525;28;20229;-88
2022/04/03 06:42:30;;;;;;;3.77;3.33;;;;;;;;;;5015880;28;20258;-88
2022/04/03 06:44:57;;;;;;;14.47;9.33;;;;;;;;;;5015786;28;20619;-88
2022/04/03 06:47:25;;;;;;;21.57;13.03;;;;;;;;;;5015608;28;20195;-88
2022/04/03 06:49:52;;;;;;;12.73;8.83;;;;;;;;;;5015826;28;20206;-88
2022/04/03 06:52:19;;;;;;;6.33;4.30;;;;;;;;;;5015470;28;20235;-88
2022/04/03 06:54:48;;;;;;;3.93;3.53;;;;;;;;;;5016265;28;20203;-88
2022/04/03 06:57:16;;;;;;;4.53;3.80;;;;;;;;;;5015367;28;20202;-88
2022/04/03 06:59:43;;;;;;;10.23;7.17;;;;;;;;;;5014501;28;20229;-88
2022/04/03 07:02:11;;;;;;;23.30;14.33;;;;;;;;;;5016268;28;20231;-88
2022/04/03 07:04:38;;;;;;;3.40;3.10;;;;;;;;;;5015593;28;20195;-88
2022/04/03 07:07:05;;;;;;;5.53;5.03;;;;;;;;;;5015322;28;20203;-88
2022/04/03 07:09:33;;;;;;;1.80;1.70;;;;;;;;;;5015539;28;20195;-88
2022/04/03 07:12:01;;;;;;;2.33;2.07;;;;;;;;;;5015162;28;20204;-87
2022/04/03 07:14:29;;;;;;;1.93;1.63;;;;;;;;;;5015168;28;20200;-88
2022/04/03 07:16:56;;;;;;;1.90;1.70;;;;;;;;;;5015230;28;20203;-88
2022/04/03 07:19:23;;;;;;;2.07;1.70;;;;;;;;;;5015628;28;20223;-88
2022/04/03 07:21:51;;;;;;;10.37;4.90;;;;;;;;;;5014932;28;20278;-86
2022/04/03 07:24:18;;;;;;;3.13;1.70;;;;;;;;;;5014976;28;20677;-87
2022/04/03 07:26:45;;;;;;;1.63;1.53;;;;;;;;;;5015005;28;20204;-89
2022/04/03 07:29:15;;;;;;;7.10;4.83;;;;;;;;;;5015348;28;20737;-89
2022/04/03 07:31:42;;;;;;;1.13;1.13;;;;;;;;;;5014900;28;20195;-89
2022/04/03 07:34:09;;;;;;;1.80;1.67;;;;;;;;;;5014879;28;20207;-88
2022/04/03 07:36:37;;;;;;;5.63;3.77;;;;;;;;;;5015096;28;20203;-88
2022/04/03 07:39:04;;;;;;;1.33;1.20;;;;;;;;;;5014776;28;20263;-88
2022/04/03 07:41:31;;;;;;;1.10;1.00;;;;;;;;;;5014898;28;20575;-89
2022/04/03 07:43:58;;;;;;;1.30;1.20;;;;;;;;;;5014656;28;20199;-89
2022/04/03 07:46:27;;;;;;;16.10;9.20;;;;;;;;;;5014626;28;20396;-89
2022/04/03 07:48:54;;;;;;;1.77;1.40;;;;;;;;;;5015123;28;20223;-89
2022/04/03 07:51:23;;;;;;;9.93;4.97;;;;;;;;;;5015029;28;20282;-89
2022/04/03 07:53:52;;;;;;;2.40;0.93;;;;;;;;;;5014989;28;20191;-89
2022/04/03 07:56:19;;;;;;;2.03;1.83;;;;;;;;;;5014340;28;20206;-88
2022/04/03 07:58:46;;;;;;;0.87;0.87;;;;;;;;;;5014670;28;20235;-88
2022/04/03 08:01:13;;;;;;;1.60;1.47;;;;;;;;;;5014734;28;20267;-89
2022/04/03 08:03:42;;;;;;;1.60;1.47;;;;;;;;;;5014302;28;20292;-88
2022/04/03 08:06:09;;;;;;;5.33;3.13;;;;;;;;;;5014579;28;20664;-89
2022/04/03 08:08:37;;;;;;;3.00;1.73;;;;;;;;;;5014323;28;20200;-89
2022/04/03 08:11:05;;;;;;;2.83;1.37;;;;;;;;;;5013339;28;20739;-89
2022/04/03 08:13:32;;;;;;;0.80;0.80;;;;;;;;;;5014452;28;20604;-89
2022/04/03 08:16:01;;;;;;;1.10;1.00;;;;;;;;;;5014122;28;20218;-89
2022/04/03 08:18:28;;;;;;;3.33;2.63;;;;;;;;;;5014399;28;20310;-89
2022/04/03 08:20:57;;;;;;;3.13;2.43;;;;;;;;;;5014507;28;20230;-89
2022/04/03 08:23:24;;;;;;;12.63;8.23;;;;;;;;;;5014394;28;20250;-89
2022/04/03 08:25:51;;;;;;;8.63;6.47;;;;;;;;;;5014065;28;20207;-89
2022/04/03 08:28:18;;;;;;;7.03;6.33;;;;;;;;;;5013874;28;20286;-90
2022/04/03 08:30:45;;;;;;;10.77;6.87;;;;;;;;;;5013882;28;20294;-89
2022/04/03 08:33:13;;;;;;;8.37;4.60;;;;;;;;;;5013942;28;20278;-89
2022/04/03 08:35:40;;;;;;;9.70;7.80;;;;;;;;;;5013563;28;20241;-89
2022/04/03 08:38:09;;;;;;;1.63;1.53;;;;;;;;;;5013762;28;20199;-89
2022/04/03 08:40:37;;;;;;;3.87;3.20;;;;;;;;;;5013699;28;20314;-89
2022/04/03 08:43:06;;;;;;;1.40;1.30;;;;;;;;;;5013959;28;20589;-89
2022/04/03 08:45:33;;;;;;;2.50;1.53;;;;;;;;;;5013947;28;20680;-89
2022/04/03 08:48:01;;;;;;;1.70;1.60;;;;;;;;;;5014229;28;20191;-88
2022/04/03 08:50:30;;;;;;;1.47;1.30;;;;;;;;;;5013824;28;20207;-88
2022/04/03 08:53:01;;;;;;;1.10;1.00;;;;;;;;;;5013406;28;20196;-88
2022/04/03 08:55:31;;;;;;;1.50;1.30;;;;;;;;;;5013179;28;20190;-88
2022/04/03 08:57:58;;;;;;;1.13;1.03;;;;;;;;;;5013779;28;20581;-88
2022/04/03 09:00:26;;;;;;;1.10;1.10;;;;;;;;;;5013248;28;20316;-88
2022/04/03 09:02:53;;;;;;;1.73;1.27;;;;;;;;;;5013272;28;20280;-88
2022/04/03 09:05:21;;;;;;;0.80;0.80;;;;;;;;;;5013177;28;20202;-88
2022/04/03 09:08:00;;;;;;;0.90;0.90;;;;;;;;;;5013081;28;20242;-88
2022/04/03 09:10:29;;;;;;;0.83;0.83;;;;;;;;;;5013205;28;20188;-88
2022/04/03 09:12:57;;;;;;;4.43;3.27;;;;;;;;;;5013395;28;20199;-88
2022/04/03 09:15:25;;;;;;;1.27;1.20;;;;;;;;;;5013467;28;20302;-89
2022/04/03 09:17:53;;;;;;;1.73;0.90;;;;;;;;;;5013218;28;20202;-89
2022/04/03 09:20:22;;;;;;;0.90;0.90;;;;;;;;;;5012809;28;20223;-87
2022/04/03 09:22:51;;;;;;;0.93;0.87;;;;;;;;;;5012895;28;20274;-88
2022/04/03 09:25:24;;;;;;;1.03;1.03;;;;;;;;;;5012755;28;20202;-88
2022/04/03 09:27:54;;;;;;;1.20;1.20;;;;;;;;;;5012832;28;20270;-88
2022/04/03 09:30:22;;;;;;;0.70;0.70;;;;;;;;;;5012915;28;20202;-88
2022/04/03 09:32:51;;;;;;;0.73;0.73;;;;;;;;;;5012981;28;20215;-88
2022/04/03 09:35:19;;;;;;;2.40;1.50;;;;;;;;;;5012855;28;20230;-88
2022/04/03 09:38:17;;;;;;;1.13;1.07;;;;;;;;;;5012934;28;20234;-87
2022/04/03 09:40:45;;;;;;;3.07;1.80;;;;;;;;;;4972012;28;20252;-88
2022/04/03 09:43:16;;;;;;;1.10;1.00;;;;;;;;;;5004175;28;20290;-88
2022/04/03 09:45:47;;;;;;;3.67;1.27;;;;;;;;;;5012954;28;20220;-89
2022/04/03 09:48:36;;;;;;;1.00;1.00;;;;;;;;;;5012815;28;20204;-89
2022/04/03 09:51:06;;;;;;;0.93;0.93;;;;;;;;;;5009645;28;20237;-88
2022/04/03 09:53:45;;;;;;;0.77;0.77;;;;;;;;;;5013326;28;20197;-88
2022/04/03 09:56:13;;;;;;;0.40;0.40;;;;;;;;;;5012886;28;20679;-89
2022/04/03 09:58:58;;;;;;;0.80;0.80;;;;;;;;;;5012830;28;20282;-88
2022/04/03 10:01:28;;;;;;;1.30;0.67;;;;;;;;;;5012726;28;20684;-88
2022/04/03 10:03:55;;;;;;;1.47;0.70;;;;;;;;;;5012610;28;20664;-88
2022/04/03 10:06:24;;;;;;;1.40;1.00;;;;;;;;;;5012246;28;20207;-89
2022/04/03 10:08:51;;;;;;;0.70;0.70;;;;;;;;;;5012707;28;20206;-88
2022/04/03 10:11:19;;;;;;;0.80;0.80;;;;;;;;;;5012614;28;20237;-89
2022/04/03 10:13:47;;;;;;;0.70;0.70;;;;;;;;;;5012596;28;20201;-88
2022/04/03 10:16:17;;;;;;;1.73;1.63;;;;;;;;;;5012519;28;20199;-88
2022/04/03 10:18:45;;;;;;;2.50;2.30;;;;;;;;;;5012308;28;20204;-88
2022/04/03 10:21:15;;;;;;;2.30;1.80;;;;;;;;;;5012809;28;20234;-88
2022/04/03 10:23:43;;;;;;;1.63;1.53;;;;;;;;;;5012207;28;20195;-88
2022/04/03 10:26:11;;;;;;;6.33;4.93;;;;;;;;;;5012385;28;20672;-88
2022/04/03 10:28:40;;;;;;;2.63;2.43;;;;;;;;;;5012308;28;20239;-88
2022/04/03 10:31:07;;;;;;;2.07;1.83;;;;;;;;;;5012505;28;20275;-88
2022/04/03 10:33:40;;;;;;;7.83;6.00;;;;;;;;;;5012236;28;20255;-88
2022/04/03 10:36:08;;;;;;;4.60;3.97;;;;;;;;;;5014986;28;20237;-88
2022/04/03 10:38:37;;;;;;;15.13;11.80;;;;;;;;;;5015917;28;20205;-88
2022/04/03 10:41:05;;;;;;;3.90;3.43;;;;;;;;;;5015641;28;20701;-87
2022/04/03 10:43:38;;;;;;;6.27;5.03;;;;;;;;;;5016066;28;20649;-89
2022/04/03 10:46:06;;;;;;;5.27;3.90;;;;;;;;;;5015937;28;20188;-89
2022/04/03 10:48:33;;;;;;;2.90;2.60;;;;;;;;;;5015700;28;20208;-88
2022/04/03 10:51:08;;;;;;;3.20;2.60;;;;;;;;;;5015713;28;20250;-89
2022/04/03 10:53:36;;;;;;;2.33;1.00;;;;;;;;;;5015645;28;20190;-90
2022/04/03 10:56:07;;;;;;;2.67;1.90;;;;;;;;;;5015618;28;20199;-89
2022/04/03 10:58:46;;;;;;;6.17;4.90;;;;;;;;;;5015675;28;20192;-89
2022/04/03 11:01:27;;;;;;;1.33;1.23;;;;;;;;;;5015707;28;20244;-89
2022/04/03 11:03:59;;;;;;;3.13;2.83;;;;;;;;;;5015760;28;20192;-89
2022/04/03 11:06:33;;;;;;;2.40;1.43;;;;;;;;;;5015509;28;20219;-89
2022/04/03 11:09:09;;;;;;;4.80;4.00;;;;;;;;;;5015462;28;20188;-88
2022/04/03 11:11:41;;;;;;;5.00;2.73;;;;;;;;;;5015775;28;20555;-89
2022/04/03 11:14:10;;;;;;;3.53;2.33;;;;;;;;;;5015656;28;20199;-89
2022/04/03 11:16:56;;;;;;;1.37;1.27;;;;;;;;;;5015130;28;20290;-88
2022/04/03 11:19:42;;;;;;;4.10;1.97;;;;;;;;;;5015331;28;20610;-89
2022/04/03 11:22:14;;;;;;;0.73;0.73;;;;;;;;;;5015138;28;20212;-89
2022/04/03 11:24:41;;;;;;;1.30;1.20;;;;;;;;;;5015315;28;20242;-89
2022/04/03 11:27:09;;;;;;;0.80;0.80;;;;;;;;;;5015539;28;20640;-89
2022/04/03 11:29:37;;;;;;;0.80;0.80;;;;;;;;;;5015019;28;20201;-88
2022/04/03 11:32:07;;;;;;;1.67;1.50;;;;;;;;;;5014716;28;20290;-88
2022/04/03 11:34:35;;;;;;;41.77;27.97;;;;;;;;;;5015144;28;20715;-88
2022/04/03 11:37:04;;;;;;;22.47;16.50;;;;;;;;;;5014321;28;20274;-89
2022/04/03 11:39:35;;;;;;;1.70;1.60;;;;;;;;;;5014492;28;20223;-88
2022/04/03 11:42:05;;;;;;;2.47;1.80;;;;;;;;;;5014693;28;20215;-88
2022/04/03 11:44:34;;;;;;;4.00;1.37;;;;;;;;;;5014949;28;20184;-88
2022/04/03 11:47:02;;;;;;;0.83;0.83;;;;;;;;;;5014677;28;20608;-89
2022/04/03 11:49:31;;;;;;;1.23;1.10;;;;;;;;;;5014544;28;20286;-89
2022/04/03 11:52:05;;;;;;;2.03;1.83;;;;;;;;;;5014541;28;20203;-88
2022/04/03 11:54:35;;;;;;;1.23;1.17;;;;;;;;;;5014447;28;20184;-88
2022/04/03 11:57:04;;;;;;;3.17;1.63;;;;;;;;;;5014377;28;20290;-89
2022/04/03 11:59:33;;;;;;;1.27;1.17;;;;;;;;;;5014330;28;20290;-89
2022/04/03 12:02:10;;;;;;;2.70;1.40;;;;;;;;;;5014324;28;20283;-88
2022/04/03 12:04:39;;;;;;;0.80;0.80;;;;;;;;;;5014793;28;20692;-90
2022/04/03 12:07:10;;;;;;;3.70;1.13;;;;;;;;;;5014661;28;20580;-89
2022/04/03 12:09:40;;;;;;;6.23;2.60;;;;;;;;;;5014472;28;20270;-89
2022/04/03 12:12:08;;;;;;;0.90;0.90;;;;;;;;;;5014489;28;20269;-88
2022/04/03 12:14:37;;;;;;;0.97;0.97;;;;;;;;;;5014055;28;20294;-88
2022/04/03 12:17:06;;;;;;;0.90;0.90;;;;;;;;;;5014388;28;20221;-87
2022/04/03 12:19:36;;;;;;;0.90;0.90;;;;;;;;;;5014299;28;20209;-89
2022/04/03 12:22:04;;;;;;;1.43;1.33;;;;;;;;;;5014068;28;20199;-88
2022/04/03 12:24:32;;;;;;;1.57;1.47;;;;;;;;;;5014249;28;20200;-88
2022/04/03 12:27:02;;;;;;;0.90;0.90;;;;;;;;;;5013904;28;20286;-90
2022/04/03 12:29:31;;;;;;;2.03;1.93;;;;;;;;;;5014089;28;20195;-89
2022/04/03 12:32:01;;;;;;;0.97;0.97;;;;;;;;;;5014235;28;20557;-90
2022/04/03 12:34:29;;;;;;;2.37;1.27;;;;;;;;;;5013681;28;20281;-89
2022/04/03 12:36:57;;;;;;;1.10;1.10;;;;;;;;;;5013787;28;20572;-88
2022/04/03 12:39:33;;;;;;;0.90;0.90;;;;;;;;;;5013673;28;20234;-89
2022/04/03 12:42:22;;;;;;;2.07;1.10;;;;;;;;;;5013850;28;20681;-88
2022/04/03 12:44:54;;;;;;;2.40;1.20;;;;;;;;;;5013562;28;20277;-88
2022/04/03 12:47:22;;;;;;;1.47;1.37;;;;;;;;;;5013866;28;20579;-88
2022/04/03 12:49:52;;;;;;;2.47;2.20;;;;;;;;;;5013690;28;20626;-88
2022/04/03 12:52:35;;;;;;;1.20;1.10;;;;;;;;;;5013974;28;20285;-88
2022/04/03 12:55:02;;;;;;;3.33;3.03;;;;;;;;;;5011207;28;20210;-88
2022/04/03 13:00:17;;;;;;;2.00;1.90;;;;;;;;;;5013885;28;20807;-88
2022/04/03 13:02:45;;;;;;;2.77;1.30;;;;;;;;;;5013732;28;20660;-88
2022/04/03 13:05:16;;;;;;;1.00;0.90;;;;;;;;;;5013446;28;20680;-88
2022/04/03 13:07:44;;;;;;;1.40;1.30;;;;;;;;;;5013540;28;20221;-87
2022/04/03 13:10:18;;;;;;;1.77;1.37;;;;;;;;;;5013066;28;20199;-88
2022/04/03 13:12:50;;;;;;;1.30;1.20;;;;;;;;;;5013289;28;20286;-91
2022/04/03 13:15:19;;;;;;;1.30;1.00;;;;;;;;;;5014808;28;20200;-95
2022/04/03 13:17:47;;;;;;;2.60;2.07;;;;;;;;;;5014120;28;20201;-91
2022/04/03 13:20:14;;;;;;;2.07;1.70;;;;;;;;;;5013031;28;20220;-89
2022/04/03 13:22:41;;;;;;;1.90;1.13;;;;;;;;;;5014100;28;20556;-87
2022/04/03 13:25:09;;;;;;;1.40;1.30;;;;;;;;;;5012801;28;20231;-87
2022/04/03 13:27:36;;;;;;;0.80;0.80;;;;;;;;;;5012768;28;20280;-87
2022/04/03 13:30:06;;;;;;;1.00;1.00;;;;;;;;;;5013165;28;20206;-88
2022/04/03 13:32:34;;;;;;;1.10;1.10;;;;;;;;;;5013561;28;20207;-91
2022/04/03 13:35:01;;;;;;;1.00;1.00;;;;;;;;;;5012546;28;20314;-87
2022/04/03 13:37:28;;;;;;;1.70;1.57;;;;;;;;;;5012623;28;20222;-87
2022/04/03 13:39:56;;;;;;;5.27;3.77;;;;;;;;;;5012464;28;20279;-87
2022/04/03 13:42:23;;;;;;;6.10;3.77;;;;;;;;;;5012560;28;20290;-87
2022/04/03 13:44:50;;;;;;;1.30;0.93;;;;;;;;;;5012497;28;20680;-87
2022/04/03 13:47:19;;;;;;;1.37;1.27;;;;;;;;;;5012430;28;20294;-87
2022/04/03 13:49:46;;;;;;;1.30;1.20;;;;;;;;;;5012261;28;20290;-87
2022/04/03 13:52:13;;;;;;;1.33;1.23;;;;;;;;;;5012481;28;20258;-87
2022/04/03 13:54:41;;;;;;;1.50;1.30;;;;;;;;;;5012647;28;20211;-87
2022/04/03 13:57:08;;;;;;;1.77;1.67;;;;;;;;;;5012247;28;20703;-87
2022/04/03 13:59:36;;;;;;;4.93;4.40;;;;;;;;;;5012628;28;20199;-86
2022/04/03 14:02:03;;;;;;;1.43;1.33;;;;;;;;;;5012164;28;20774;-87
2022/04/03 14:04:32;;;;;;;3.00;2.27;;;;;;;;;;5012254;28;20282;-87
2022/04/03 14:06:59;;;;;;;4.47;2.97;;;;;;;;;;5012276;28;20227;-86
2022/04/03 14:09:27;;;;;;;2.77;2.53;;;;;;;;;;5012610;28;20235;-87
2022/04/03 14:11:54;;;;;;;1.80;1.40;;;;;;;;;;5016383;28;20195;-86
2022/04/03 14:14:21;;;;;;;2.70;1.80;;;;;;;;;;5016259;28;20210;-87
2022/04/03 14:16:48;;;;;;;2.90;1.50;;;;;;;;;;5015949;28;20231;-87
2022/04/03 14:19:16;;;;;;;2.77;2.53;;;;;;;;;;5015966;28;20694;-87
2022/04/03 14:21:44;;;;;;;1.93;1.50;;;;;;;;;;5015858;28;20306;-87
2022/04/03 14:24:11;;;;;;;2.10;1.97;;;;;;;;;;5015980;28;20203;-87
2022/04/03 14:26:39;;;;;;;1.77;1.67;;;;;;;;;;5015743;28;20266;-87
2022/04/03 14:29:06;;;;;;;1.57;1.30;;;;;;;;;;5015942;28;20231;-87
2022/04/03 14:31:33;;;;;;;1.30;1.20;;;;;;;;;;5015779;28;20199;-88
2022/04/03 14:34:01;;;;;;;6.63;5.90;;;;;;;;;;5015559;28;20303;-87
2022/04/03 14:36:29;;;;;;;5.10;4.37;;;;;;;;;;5016407;28;20716;-87
2022/04/03 14:38:58;;;;;;;10.77;9.13;;;;;;;;;;5016007;28;20225;-88
2022/04/03 14:41:25;;;;;;;7.40;6.60;;;;;;;;;;5016135;28;20310;-88
2022/04/03 14:43:53;;;;;;;6.77;5.40;;;;;;;;;;5016291;28;20219;-88
2022/04/03 14:46:21;;;;;;;2.03;1.40;;;;;;;;;;5015828;28;20199;-87
2022/04/03 14:48:48;;;;;;;2.13;1.93;;;;;;;;;;5015206;28;20241;-87
2022/04/03 14:51:15;;;;;;;1.43;1.33;;;;;;;;;;5015339;28;20235;-87